Terminal Aerodrome Forecast
Issued by NWS

Home | Current Version | Previous Version | Text Only | Print | Product List | Glossary On
Versions: 1 2 3 4 5 6 7 8 9 10 11 12 13 14 15 16 17 18 19 20 21 22 23 24 25 26 27 28 29 30 31 32
066
FTUS44 KJAN 101736
TAFGTR
TAF
KGTR 101736Z 1018/1118 36011G17KT 6SM -RA BR BKN010
     FM110300 36008KT 4SM -SN BR OVC007
     FM110800 01006KT P6SM BKN015
     FM111000 01007KT P6SM BKN250=

USA.gov is the U.S. government's official web portal to all federal, state and local government web resources and services.